createdAt,value
2023-05-23T00:04:52.261Z,997.98
2023-05-23T00:09:52.192Z,997.98
2023-05-23T00:14:52.129Z,998.03
2023-05-23T00:19:52.066Z,997.95
2023-05-23T00:24:52.564Z,997.98
2023-05-23T00:29:51.933Z,998.06
2023-05-23T00:34:51.857Z,998.32
2023-05-23T00:39:51.787Z,998.50
2023-05-23T00:44:51.729Z,998.37
2023-05-23T00:49:51.652Z,998.39
2023-05-23T00:54:51.586Z,998.28
2023-05-23T00:59:51.546Z,998.06
2023-05-23T01:04:51.772Z,998.25
2023-05-23T01:09:51.392Z,997.92
2023-05-23T01:14:51.326Z,998.07
2023-05-23T01:19:51.288Z,998.10
2023-05-23T01:24:51.271Z,998.13
2023-05-23T01:29:51.163Z,998.13
2023-05-23T01:34:51.100Z,998.17
2023-05-23T01:39:51.018Z,998.26
2023-05-23T01:44:50.978Z,998.43
2023-05-23T01:49:50.901Z,998.44
2023-05-23T01:54:50.890Z,998.35
2023-05-23T01:59:50.795Z,998.35
2023-05-23T02:04:50.734Z,998.28
2023-05-23T02:09:50.636Z,998.28
2023-05-23T02:14:50.586Z,998.17
2023-05-23T02:19:50.489Z,998.09
2023-05-23T02:24:50.442Z,997.94
2023-05-23T02:29:50.367Z,997.86
2023-05-23T02:34:50.319Z,997.77
2023-05-23T02:39:50.245Z,997.69
2023-05-23T02:44:50.160Z,997.64
2023-05-23T02:49:50.091Z,997.54
2023-05-23T02:54:50.029Z,997.67
2023-05-23T02:59:49.963Z,997.52
2023-05-23T03:04:49.959Z,997.38
2023-05-23T03:09:49.939Z,997.28
2023-05-23T03:14:49.824Z,997.29
2023-05-23T03:19:49.838Z,997.25
2023-05-23T03:24:49.757Z,997.26
2023-05-23T03:29:49.731Z,997.20
2023-05-23T03:34:49.560Z,997.07
2023-05-23T03:39:49.561Z,997.01
2023-05-23T03:44:49.410Z,996.98
2023-05-23T03:49:49.337Z,997.05
2023-05-23T03:54:49.274Z,997.16
2023-05-23T03:59:49.187Z,997.19
2023-05-23T04:04:49.116Z,997.38
2023-05-23T04:09:49.055Z,997.45
2023-05-23T04:14:49.045Z,997.55
2023-05-23T04:19:48.914Z,997.43
2023-05-23T04:24:48.808Z,997.59
2023-05-23T04:29:48.707Z,997.69
2023-05-23T04:34:48.642Z,997.64
2023-05-23T04:39:48.576Z,997.67
2023-05-23T04:44:48.516Z,997.70
2023-05-23T04:49:48.443Z,997.70
2023-05-23T04:54:48.385Z,997.69
2023-05-23T04:59:48.305Z,997.77
2023-05-23T05:04:48.241Z,997.76
2023-05-23T05:09:48.167Z,997.76
2023-05-23T05:14:48.097Z,997.76
2023-05-23T05:19:48.040Z,997.80
2023-05-23T05:24:47.975Z,997.78
2023-05-23T05:29:47.901Z,997.83
2023-05-23T05:34:49.460Z,997.84
2023-05-23T05:39:47.764Z,997.79
2023-05-23T05:44:47.709Z,997.79
2023-05-23T05:49:47.636Z,997.90
2023-05-23T05:54:47.562Z,997.96
2023-05-23T05:59:47.491Z,997.85
2023-05-23T06:04:47.496Z,998.00
2023-05-23T06:09:47.371Z,998.07
2023-05-23T06:14:47.303Z,998.00
2023-05-23T06:19:47.220Z,997.96
2023-05-23T06:24:47.177Z,998.04
2023-05-23T06:29:47.119Z,998.06
2023-05-23T06:34:47.046Z,998.09
2023-05-23T06:39:46.963Z,998.15
2023-05-23T06:44:46.905Z,998.23
2023-05-23T06:49:46.828Z,998.17
2023-05-23T06:54:46.795Z,998.27
2023-05-23T06:59:46.696Z,998.31
2023-05-23T07:04:46.632Z,998.30
2023-05-23T07:09:46.573Z,998.35
2023-05-23T07:14:46.500Z,998.33
2023-05-23T07:19:46.417Z,998.27
2023-05-23T07:24:46.369Z,998.36
2023-05-23T07:29:46.280Z,998.40
2023-05-23T07:34:46.222Z,998.43
2023-05-23T07:39:46.151Z,998.31
2023-05-23T07:44:46.096Z,998.28
2023-05-23T07:49:46.010Z,998.30
2023-05-23T07:54:45.950Z,998.28
2023-05-23T07:59:45.892Z,998.33
2023-05-23T08:04:45.932Z,998.29
2023-05-23T08:09:45.743Z,998.25
2023-05-23T08:14:51.592Z,998.29
2023-05-23T08:19:46.620Z,998.38
2023-05-23T08:24:45.558Z,998.42
2023-05-23T08:29:45.487Z,998.46
2023-05-23T08:34:45.434Z,998.38
2023-05-23T08:39:45.353Z,998.40
2023-05-23T08:44:45.314Z,998.51
2023-05-23T08:49:45.234Z,998.57
2023-05-23T08:54:45.186Z,998.49
2023-05-23T08:59:45.099Z,998.64
2023-05-23T09:04:45.031Z,998.60
2023-05-23T09:09:44.962Z,998.70
2023-05-23T09:14:44.902Z,998.72
2023-05-23T09:19:44.823Z,998.71
2023-05-23T09:24:44.774Z,998.80
2023-05-23T09:29:44.700Z,998.92
2023-05-23T09:34:44.640Z,998.86
2023-05-23T09:39:44.591Z,998.90
2023-05-23T09:44:44.505Z,998.96
2023-05-23T09:49:44.428Z,998.96
2023-05-23T09:54:44.373Z,999.07
2023-05-23T09:59:44.296Z,999.17
2023-05-23T10:04:44.340Z,999.22
2023-05-23T10:09:44.165Z,999.19
2023-05-23T10:14:44.107Z,999.29
2023-05-23T10:19:44.054Z,999.30
2023-05-23T10:24:43.976Z,999.21
2023-05-23T10:29:43.952Z,999.43
2023-05-23T10:34:43.841Z,999.41
2023-05-23T10:39:43.763Z,999.33
2023-05-23T10:44:43.709Z,999.41
2023-05-23T10:49:43.701Z,999.49
2023-05-23T10:54:43.587Z,999.45
2023-05-23T10:59:43.503Z,999.49
2023-05-23T11:04:43.494Z,999.48
2023-05-23T11:09:43.372Z,999.57
2023-05-23T11:14:43.310Z,999.53
2023-05-23T11:19:43.359Z,999.49
2023-05-23T11:24:43.183Z,999.45
2023-05-23T11:29:43.110Z,999.59
2023-05-23T11:34:43.060Z,999.55
2023-05-23T11:39:42.976Z,999.64
2023-05-23T11:44:42.919Z,999.56
2023-05-23T11:49:42.850Z,999.53
2023-05-23T11:54:42.782Z,999.53
2023-05-23T11:59:42.719Z,999.61
2023-05-23T12:04:42.681Z,999.58
2023-05-23T12:09:42.635Z,999.51
2023-05-23T12:14:42.513Z,999.52
2023-05-23T12:19:42.535Z,999.52
2023-05-23T12:24:42.384Z,999.53
2023-05-23T12:29:42.322Z,999.55
2023-05-23T12:34:42.330Z,999.55
2023-05-23T12:39:42.177Z,999.50
2023-05-23T12:44:42.202Z,999.60
2023-05-23T12:49:42.086Z,999.62
2023-05-23T12:54:41.995Z,999.74
2023-05-23T12:59:41.920Z,999.74
2023-05-23T13:04:41.856Z,999.81
2023-05-23T13:09:41.805Z,999.94
2023-05-23T13:14:41.725Z,999.96
2023-05-23T13:19:41.814Z,999.93
2023-05-23T13:24:41.594Z,999.97
2023-05-23T13:29:41.525Z,1000.00
2023-05-23T13:34:41.489Z,1000.10
2023-05-23T13:39:41.388Z,1000.05
2023-05-23T13:44:41.328Z,1000.04
2023-05-23T13:49:41.265Z,1000.06
2023-05-23T13:54:41.202Z,1000.19
2023-05-23T13:59:41.131Z,1000.30
2023-05-23T14:04:41.093Z,1000.24
2023-05-23T14:09:41.001Z,1000.27
2023-05-23T14:14:40.930Z,1000.20
2023-05-23T14:19:40.933Z,1000.29
2023-05-23T14:24:40.812Z,1000.32
2023-05-23T14:29:40.752Z,1000.31
2023-05-23T14:34:40.661Z,1000.31
2023-05-23T14:39:41.376Z,1000.34
2023-05-23T14:44:40.520Z,1000.49
2023-05-23T14:49:40.460Z,1000.48
2023-05-23T14:54:40.401Z,1000.58
2023-05-23T14:59:40.358Z,1000.53
2023-05-23T15:04:40.256Z,1000.53
2023-05-23T15:09:40.189Z,1000.65
2023-05-23T15:14:40.143Z,1000.61
2023-05-23T15:19:40.142Z,1000.62
2023-05-23T15:24:40.954Z,1000.73
2023-05-23T15:29:39.935Z,1000.69
2023-05-23T15:34:39.868Z,1000.71
2023-05-23T15:39:39.794Z,1000.72
2023-05-23T15:44:40.705Z,1000.74
2023-05-23T15:49:39.668Z,1000.76
2023-05-23T15:54:39.690Z,1000.89
2023-05-23T15:59:39.581Z,1000.85
2023-05-23T16:04:39.539Z,1000.81
2023-05-23T16:09:39.457Z,1000.98
2023-05-23T16:14:39.362Z,1001.01
2023-05-23T16:19:40.164Z,1001.05
2023-05-23T16:24:39.461Z,1001.04
2023-05-23T16:29:39.174Z,1001.13
2023-05-23T16:34:39.470Z,1001.02
2023-05-23T16:39:39.053Z,1001.00
2023-05-23T16:44:38.996Z,1001.10
2023-05-23T16:49:38.905Z,1001.10
2023-05-23T16:54:39.632Z,1001.18
2023-05-23T16:59:38.781Z,1001.13
2023-05-23T17:04:38.694Z,1001.20
2023-05-23T17:09:38.620Z,1001.28
2023-05-23T17:14:38.533Z,1001.36
2023-05-23T17:19:38.561Z,1001.52
2023-05-23T17:24:38.636Z,1001.60
2023-05-23T17:29:38.346Z,1001.56
2023-05-23T17:34:38.267Z,1001.65
2023-05-23T17:39:38.532Z,1001.81
2023-05-23T17:44:38.125Z,1001.81
2023-05-23T17:49:38.050Z,1001.82
2023-05-23T17:54:38.031Z,1001.94
2023-05-23T17:59:37.909Z,1002.14
2023-05-23T18:04:38.379Z,1002.09
2023-05-23T18:09:38.787Z,1002.06
2023-05-23T18:14:37.707Z,1002.19
2023-05-23T18:19:37.711Z,1002.21
2023-05-23T18:24:37.582Z,1002.28
2023-05-23T18:29:37.525Z,1002.29
2023-05-23T18:34:37.447Z,1002.42
2023-05-23T18:39:37.410Z,1002.50
2023-05-23T18:44:37.324Z,1002.63
2023-05-23T18:49:37.257Z,1002.78
2023-05-23T18:54:37.180Z,1002.76
2023-05-23T18:59:37.127Z,1002.77
2023-05-23T19:04:37.057Z,1003.00
2023-05-23T19:09:37.003Z,1003.08
2023-05-23T19:14:36.925Z,1003.11
2023-05-23T19:19:36.885Z,1003.18
2023-05-23T19:24:36.785Z,1003.40
2023-05-23T19:29:36.723Z,1003.50
2023-05-23T19:34:36.679Z,1003.59
2023-05-23T19:39:36.602Z,1003.70
2023-05-23T19:44:36.519Z,1003.72
2023-05-23T19:49:36.477Z,1003.87
2023-05-23T19:54:36.426Z,1003.80
2023-05-23T19:59:36.352Z,1003.92
2023-05-23T20:04:36.265Z,1003.94
2023-05-23T20:09:36.197Z,1004.03
2023-05-23T20:14:36.125Z,1004.12
2023-05-23T20:19:36.089Z,1004.22
2023-05-23T20:24:35.995Z,1004.23
2023-05-23T20:29:35.935Z,1004.32
2023-05-23T20:34:35.867Z,1004.30
2023-05-23T20:39:35.796Z,1004.35
2023-05-23T20:44:35.758Z,1004.38
2023-05-23T20:49:35.695Z,1004.36
2023-05-23T20:54:35.591Z,1004.38
2023-05-23T20:59:35.535Z,1004.41
2023-05-23T21:04:35.458Z,1004.41
2023-05-23T21:09:35.401Z,1004.56
2023-05-23T21:14:35.345Z,1004.55
2023-05-23T21:19:35.299Z,1004.64
2023-05-23T21:24:35.232Z,1004.58
2023-05-23T21:29:35.140Z,1004.62
2023-05-23T21:34:35.093Z,1004.69
2023-05-23T21:39:50.039Z,1004.69
2023-05-23T21:44:35.950Z,1004.70
2023-05-23T21:49:34.888Z,1004.73
2023-05-23T21:54:34.859Z,1004.68
2023-05-23T21:59:34.746Z,1004.80
2023-05-23T22:04:34.684Z,1004.80
2023-05-23T22:09:34.619Z,1004.73
2023-05-23T22:14:34.547Z,1004.83
2023-05-23T22:19:34.562Z,1004.81
2023-05-23T22:24:34.429Z,1004.85
2023-05-23T22:29:34.371Z,1004.87
2023-05-23T22:34:34.291Z,1004.83
2023-05-23T22:39:34.233Z,1004.89
2023-05-23T22:44:34.164Z,1004.91
2023-05-23T22:49:34.101Z,1004.95
2023-05-23T22:54:34.039Z,1004.84
2023-05-23T22:59:33.973Z,1004.90
2023-05-23T23:04:33.896Z,1004.79
2023-05-23T23:09:33.859Z,1004.84
2023-05-23T23:14:33.779Z,1004.79
2023-05-23T23:19:33.710Z,1004.62
2023-05-23T23:24:33.646Z,1004.66
2023-05-23T23:29:33.572Z,1004.74
2023-05-23T23:34:33.513Z,1004.78
2023-05-23T23:39:33.451Z,1004.69
2023-05-23T23:44:33.377Z,1004.69
2023-05-23T23:49:33.315Z,1004.74
2023-05-23T23:54:33.241Z,1004.84
2023-05-23T23:59:33.199Z,1004.85
